Terminal Aerodrome Forecast
Issued by NWS Indianapolis, IN

Home | Current Version | Previous Version | Text Only | Print | Product List | Glossary On
Versions: 1 2 3 4 5 6 7 8 9 10 11 12 13 14 15 16 17 18 19 20 21 22 23 24 25
159
FTUS43 KIND 250220 AAB
TAFIND
TAF AMD
KIND 250220Z 2502/2606 35006KT P6SM BKN025 OVC050
      TEMPO 2502/2504 SCT025 OVC050
     FM250600 35005KT P6SM OVC015
     FM250800 35010KT P6SM SCT007 BKN010
     FM251700 35010KT P6SM SCT035=

USA.gov is the U.S. government's official web portal to all federal, state and local government web resources and services.